createdAt,value
2023-02-03T00:36:44.934Z,28.96
2023-02-03T00:37:44.866Z,28.48
2023-02-03T00:38:44.813Z,28.90
2023-02-03T00:39:44.781Z,25.65
2023-02-03T00:40:44.732Z,28.20
2023-02-03T00:41:44.667Z,26.62
2023-02-03T00:42:44.615Z,25.09
2023-02-03T00:43:44.570Z,27.89
2023-02-03T00:44:44.526Z,26.62
2023-02-03T00:45:44.569Z,26.73
2023-02-03T00:46:44.424Z,28.24
2023-02-03T00:47:44.439Z,27.85
2023-02-03T00:48:44.338Z,25.68
2023-02-03T00:49:44.297Z,25.35
2023-02-03T00:50:44.249Z,29.04
2023-02-03T00:51:44.191Z,27.45
2023-02-03T00:52:44.156Z,26.60
2023-02-03T00:53:44.096Z,28.24
2023-02-03T00:54:44.085Z,25.00
2023-02-03T00:55:44.038Z,27.81
2023-02-03T00:56:43.980Z,26.69
2023-02-03T00:57:43.949Z,26.53
2023-02-03T00:58:43.899Z,26.96
2023-02-03T00:59:43.850Z,27.21
2023-02-03T01:00:43.824Z,27.15
2023-02-03T01:01:43.774Z,26.30
2023-02-03T01:02:43.738Z,27.21
2023-02-03T01:03:43.679Z,27.48
2023-02-03T01:04:43.638Z,27.83
2023-02-03T01:05:43.603Z,26.74
2023-02-03T01:06:43.599Z,29.45
2023-02-03T01:07:43.506Z,29.71
2023-02-03T01:08:43.474Z,29.05
2023-02-03T01:09:43.598Z,28.58
2023-02-03T01:10:43.478Z,26.28
2023-02-03T02:34:39.842Z,28.10
2023-02-03T02:35:39.789Z,28.48
2023-02-03T02:36:39.736Z,29.40
2023-02-03T02:37:39.697Z,27.11
2023-02-03T02:38:39.609Z,26.76
2023-02-03T02:39:39.579Z,26.93
2023-02-03T02:40:39.518Z,28.34
2023-02-03T02:41:39.454Z,27.63
2023-02-03T02:42:39.393Z,26.64
2023-02-03T02:43:39.334Z,28.22
2023-02-03T02:44:39.272Z,25.25
2023-02-03T02:45:39.216Z,25.00
2023-02-03T02:46:39.220Z,27.25
2023-02-03T02:47:39.088Z,28.95
2023-02-03T02:48:39.010Z,29.82
2023-02-03T02:49:38.955Z,28.66
2023-02-03T02:50:38.877Z,28.50
2023-02-03T02:51:38.807Z,29.29
2023-02-03T02:52:38.741Z,28.07
2023-02-03T02:53:38.673Z,27.35
2023-02-03T02:54:38.601Z,27.12
2023-02-03T02:55:38.543Z,26.61
2023-02-03T02:56:38.482Z,28.65
2023-02-03T02:57:38.389Z,27.81
2023-02-03T02:58:38.327Z,26.70
2023-02-03T02:59:38.271Z,28.83
2023-02-03T03:00:38.220Z,28.50
2023-02-03T03:01:38.221Z,27.33
2023-02-03T03:02:38.101Z,29.58
2023-02-03T03:03:38.051Z,27.07
2023-02-03T03:04:38.141Z,27.02
2023-02-03T03:05:37.922Z,28.35
2023-02-03T03:06:37.894Z,28.24
2023-02-03T03:07:37.837Z,26.03
2023-02-03T03:08:37.802Z,28.63
2023-02-03T03:09:37.753Z,25.94
2023-02-03T03:10:37.692Z,31.03
2023-02-03T03:11:37.669Z,27.42
2023-02-03T03:12:37.653Z,27.78
2023-02-03T03:13:37.618Z,26.72
2023-02-03T03:14:37.579Z,26.64
2023-02-03T03:15:37.589Z,28.29
2023-02-03T03:16:37.516Z,28.07
2023-02-03T03:17:37.465Z,31.18
2023-02-03T03:18:37.407Z,28.46
2023-02-03T03:19:37.423Z,26.87
2023-02-03T03:20:37.318Z,28.47
2023-02-03T03:21:37.310Z,28.26
2023-02-03T03:22:37.259Z,30.11
2023-02-03T03:23:37.217Z,27.26
2023-02-03T03:24:37.202Z,28.84
2023-02-03T03:25:37.178Z,28.05
2023-02-03T03:26:37.157Z,27.47
2023-02-03T03:27:37.169Z,30.42
2023-02-03T03:28:37.158Z,25.85
2023-02-03T03:29:37.141Z,30.01
2023-02-03T03:30:37.205Z,28.13
2023-02-03T03:31:37.250Z,30.92
2023-02-03T03:32:37.084Z,28.32
2023-02-03T03:33:37.045Z,28.26
2023-02-03T03:34:37.024Z,27.58
2023-02-03T03:35:37.008Z,28.81
2023-02-03T03:36:37.001Z,25.93
2023-02-03T03:37:37.010Z,26.39
2023-02-03T03:38:37.002Z,29.91
2023-02-03T03:39:37.054Z,29.87
2023-02-03T03:40:36.986Z,28.01
2023-02-03T03:41:36.979Z,30.08
2023-02-03T03:42:36.976Z,29.12
2023-02-03T03:43:36.959Z,28.34
2023-02-03T03:44:36.957Z,27.51
2023-02-03T03:45:36.926Z,26.86
2023-02-03T03:46:37.000Z,29.97
2023-02-03T03:47:36.905Z,30.19
2023-02-03T03:48:36.908Z,27.68
2023-02-03T03:49:36.891Z,26.29
2023-02-03T03:50:36.880Z,27.09
2023-02-03T03:51:36.869Z,26.49
2023-02-03T03:52:36.873Z,27.86
2023-02-03T03:53:36.847Z,27.35
2023-02-03T03:54:36.849Z,28.58
2023-02-03T03:55:36.846Z,27.34
2023-02-03T03:56:36.872Z,26.95
2023-02-03T03:57:36.822Z,26.66
2023-02-03T03:58:36.813Z,25.64
2023-02-03T03:59:36.808Z,28.79
2023-02-03T04:00:36.813Z,28.81
2023-02-03T04:01:36.893Z,29.27
2023-02-03T04:02:37.022Z,27.59
2023-02-03T04:03:37.641Z,27.75
2023-02-03T04:04:36.781Z,29.31
2023-02-03T04:05:36.759Z,27.55
2023-02-03T04:06:36.744Z,27.91
2023-02-03T04:07:36.809Z,27.83
2023-02-03T04:08:36.879Z,28.53
2023-02-03T04:09:36.759Z,27.74
2023-02-03T04:10:36.716Z,25.62
2023-02-03T04:11:36.707Z,28.54
2023-02-03T04:12:36.706Z,27.48
2023-02-03T04:13:36.699Z,27.19
2023-02-03T04:14:36.691Z,30.03
2023-02-03T04:15:36.671Z,28.77
2023-02-03T04:16:36.660Z,28.55
2023-02-03T04:17:36.644Z,28.10
2023-02-03T04:18:36.636Z,28.63
2023-02-03T04:19:36.625Z,28.02
2023-02-03T04:20:36.678Z,26.66
2023-02-03T04:36:36.492Z,26.38
2023-02-03T04:37:36.478Z,28.99
2023-02-03T04:38:36.535Z,28.26
2023-02-03T04:39:36.458Z,26.56
2023-02-03T04:40:36.665Z,29.03
2023-02-03T04:41:36.446Z,30.04
2023-02-03T04:42:36.422Z,26.09
2023-02-03T04:43:36.429Z,27.21
2023-02-03T04:44:36.418Z,28.37
2023-02-03T04:45:36.494Z,29.26
2023-02-03T04:46:36.419Z,25.83
2023-02-03T04:47:36.458Z,28.13
2023-02-03T04:48:36.396Z,30.82
2023-02-03T04:49:36.386Z,29.69
2023-02-03T04:50:36.395Z,27.38
2023-02-03T04:51:36.374Z,27.00
2023-02-03T04:52:36.378Z,29.46
2023-02-03T04:53:36.351Z,27.43
2023-02-03T04:54:36.333Z,26.68
2023-02-03T04:55:36.407Z,29.64
2023-02-03T04:56:36.315Z,25.84
2023-02-03T04:57:36.309Z,26.84
2023-02-03T04:58:36.311Z,28.77
2023-02-03T04:59:36.294Z,30.32
2023-02-03T05:00:36.286Z,27.04
2023-02-03T05:01:36.288Z,29.55
2023-02-03T05:02:36.254Z,29.07
2023-02-03T05:03:36.318Z,26.97
2023-02-03T05:04:36.246Z,26.17
2023-02-03T05:05:36.244Z,26.91
2023-02-03T05:06:36.227Z,28.57
2023-02-03T05:07:36.202Z,28.84
2023-02-03T05:08:36.186Z,28.00
2023-02-03T05:09:36.176Z,27.11
2023-02-03T05:10:36.151Z,26.62
2023-02-03T05:11:36.145Z,30.29
2023-02-03T05:12:36.668Z,30.29
2023-02-03T05:13:36.114Z,28.65
2023-02-03T05:14:36.098Z,25.00
2023-02-03T05:15:36.088Z,28.09
2023-02-03T05:16:36.123Z,26.54
2023-02-03T05:17:36.053Z,28.16
2023-02-03T05:18:36.040Z,28.76
2023-02-03T05:19:36.011Z,26.69
2023-02-03T05:20:36.004Z,26.40
2023-02-03T05:21:36.183Z,25.32
2023-02-03T05:22:35.968Z,25.54
2023-02-03T05:23:36.840Z,25.91
2023-02-03T05:24:35.931Z,27.36
2023-02-03T05:25:35.992Z,25.58
2023-02-03T05:26:35.908Z,27.49
2023-02-03T05:27:36.043Z,27.22
2023-02-03T05:28:35.880Z,25.56
2023-02-03T05:29:35.858Z,27.28
2023-02-03T05:30:35.913Z,28.81
2023-02-03T05:31:36.224Z,25.00
2023-02-03T05:32:35.821Z,27.52
2023-02-03T05:33:35.804Z,28.80
2023-02-03T05:34:35.906Z,27.65
2023-02-03T05:35:35.781Z,27.53
2023-02-03T05:36:35.765Z,26.76
2023-02-03T05:37:35.741Z,29.67
2023-02-03T05:38:35.725Z,28.22
2023-02-03T05:39:35.770Z,28.48
2023-02-03T05:40:36.196Z,27.33
2023-02-03T05:41:35.678Z,25.36
2023-02-03T05:42:35.659Z,28.72
2023-02-03T05:43:35.641Z,27.87
2023-02-03T05:44:36.262Z,29.75
2023-02-03T05:45:35.649Z,27.74
2023-02-03T05:46:35.590Z,29.42
2023-02-03T05:47:35.681Z,27.69
2023-02-03T05:48:35.554Z,28.98
2023-02-03T05:49:35.534Z,26.19
2023-02-03T05:50:38.176Z,28.04
2023-02-03T05:51:35.442Z,27.79
2023-02-03T05:52:35.379Z,26.15
2023-02-03T05:53:35.307Z,26.41
2023-02-03T05:54:35.211Z,27.89
2023-02-03T05:55:35.136Z,28.74
2023-02-03T05:56:35.050Z,25.00
2023-02-03T05:57:34.991Z,25.73
2023-02-03T05:58:34.887Z,27.54
2023-02-03T05:59:34.812Z,28.43
2023-02-03T06:00:34.722Z,28.42
2023-02-03T06:01:34.639Z,25.88
2023-02-03T06:02:34.562Z,30.08
2023-02-03T06:03:34.553Z,27.05
2023-02-03T06:04:34.474Z,25.44
2023-02-03T06:05:34.343Z,27.86
2023-02-03T06:06:34.258Z,27.72
2023-02-03T06:07:34.158Z,25.98
2023-02-03T06:08:34.066Z,26.47
2023-02-03T06:09:34.080Z,26.83
2023-02-03T06:10:33.900Z,28.33
2023-02-03T06:11:33.813Z,26.06
2023-02-03T06:12:33.760Z,27.93
2023-02-03T06:13:33.673Z,25.10
2023-02-03T06:14:33.585Z,26.49
2023-02-03T06:15:33.511Z,26.65
2023-02-03T06:16:33.509Z,26.61
2023-02-03T08:11:26.181Z,248.00
2023-02-03T08:12:26.074Z,249.61
2023-02-03T08:13:26.059Z,250.00
2023-02-03T08:14:26.034Z,248.42
2023-02-03T08:15:26.005Z,248.04
2023-02-03T08:16:26.051Z,249.39
2023-02-03T08:17:25.971Z,250.00
2023-02-03T08:18:25.943Z,249.94
2023-02-03T08:19:26.732Z,249.54
2023-02-03T08:20:26.247Z,246.53
2023-02-03T08:21:25.887Z,245.00
2023-02-03T08:22:25.833Z,243.99
2023-02-03T08:23:25.819Z,243.41
2023-02-03T08:24:25.793Z,243.99
2023-02-03T08:25:25.761Z,247.48
2023-02-03T08:26:25.736Z,247.45
2023-02-03T08:27:25.709Z,247.84
2023-02-03T08:28:25.672Z,249.92
2023-02-03T08:29:25.663Z,247.13
2023-02-03T08:30:25.857Z,247.41
2023-02-03T08:31:25.828Z,247.75
2023-02-03T08:32:25.661Z,247.18
2023-02-03T08:33:25.570Z,248.18
2023-02-03T08:34:25.538Z,248.68
2023-02-03T08:35:25.503Z,249.62
2023-02-03T08:36:25.489Z,249.15
2023-02-03T08:37:25.453Z,248.46
2023-02-03T08:38:25.406Z,248.30
2023-02-03T08:39:25.463Z,249.94
2023-02-03T08:40:25.554Z,248.08
2023-02-03T08:41:25.321Z,248.36
2023-02-03T08:42:25.264Z,248.12
2023-02-03T08:43:25.214Z,246.68
2023-02-03T09:06:26.156Z,249.78
2023-02-03T09:07:24.153Z,249.92
2023-02-03T09:08:24.093Z,248.18
2023-02-03T09:09:24.043Z,247.49
2023-02-03T09:10:23.996Z,250.00
2023-02-03T09:11:23.953Z,248.28
2023-02-03T09:13:23.835Z,240.48
2023-02-03T09:14:23.787Z,196.17
2023-02-03T09:15:23.720Z,100.01
2023-02-03T09:16:23.780Z,60.19
2023-02-03T09:17:23.645Z,68.76
2023-02-03T09:18:23.645Z,70.34
2023-02-03T09:19:23.626Z,70.01
2023-02-03T09:20:23.644Z,68.89
2023-02-03T09:21:33.242Z,63.94
2023-02-03T09:23:23.416Z,56.83
2023-02-03T09:54:23.760Z,48.15
2023-02-03T11:16:16.314Z,108.10
2023-02-03T11:17:16.141Z,99.31
2023-02-03T11:18:16.065Z,101.92
2023-02-03T11:19:15.966Z,104.99
2023-02-03T11:20:15.887Z,106.74
2023-02-03T11:21:15.797Z,110.80
2023-02-03T11:22:15.678Z,115.57
2023-02-03T11:23:15.591Z,121.06
2023-02-03T11:24:15.496Z,120.10
2023-02-03T11:25:15.430Z,119.88
2023-02-03T11:26:15.417Z,123.31
2023-02-03T11:27:15.295Z,125.91
2023-02-03T11:28:15.271Z,126.87
2023-02-03T11:29:15.222Z,131.61
2023-02-03T11:30:15.181Z,133.70
2023-02-03T11:31:15.126Z,138.62
2023-02-03T11:32:15.708Z,147.31
2023-02-03T11:33:14.945Z,147.85
2023-02-03T11:34:14.885Z,151.07
2023-02-03T11:35:14.816Z,148.43
2023-02-03T11:36:14.763Z,150.46
2023-02-03T11:37:15.293Z,156.70
2023-02-03T11:38:14.620Z,160.79
2023-02-03T11:39:14.652Z,163.41
2023-02-03T11:40:14.473Z,167.82
2023-02-03T11:41:14.403Z,170.05
2023-02-03T11:42:14.341Z,175.16
2023-02-03T11:43:14.291Z,174.31
2023-02-03T11:44:14.216Z,177.45
2023-02-03T11:45:14.718Z,181.97
2023-02-03T11:46:14.147Z,183.69
2023-02-03T11:47:14.031Z,182.90
2023-02-03T11:48:13.968Z,183.71
2023-02-03T11:49:13.978Z,185.31
2023-02-03T11:50:13.819Z,182.55
2023-02-03T11:51:13.743Z,184.71
2023-02-03T11:52:13.661Z,185.35
2023-02-03T11:53:13.595Z,187.36
2023-02-03T11:54:13.513Z,187.95
2023-02-03T11:55:13.431Z,188.91
2023-02-03T11:56:13.415Z,191.39
2023-02-03T13:58:06.969Z,125.15
2023-02-03T13:59:06.942Z,126.23
2023-02-03T14:00:06.899Z,126.57
2023-02-03T14:01:06.850Z,125.59
2023-02-03T14:02:06.791Z,124.08
2023-02-03T14:03:06.846Z,124.56
2023-02-03T14:04:06.811Z,123.95
2023-02-03T14:05:06.728Z,124.06
2023-02-03T14:06:06.621Z,126.32
2023-02-03T14:07:06.574Z,122.92
2023-02-03T14:08:06.525Z,124.18
2023-02-03T14:09:06.488Z,122.71
2023-02-03T14:10:06.486Z,123.99
2023-02-03T14:11:07.387Z,124.38
2023-02-03T14:12:06.351Z,123.54
2023-02-03T14:13:06.291Z,122.21
2023-02-03T14:14:06.252Z,120.02
2023-02-03T14:15:06.212Z,123.25
2023-02-03T14:16:06.354Z,122.98
2023-02-03T14:17:06.177Z,120.10
2023-02-03T14:18:06.089Z,119.59
2023-02-03T14:19:06.044Z,119.46
2023-02-03T14:20:05.990Z,120.38
2023-02-03T14:21:06.049Z,119.87
2023-02-03T14:22:05.983Z,115.94
2023-02-03T14:23:05.864Z,117.56
2023-02-03T14:24:05.905Z,117.99
2023-02-03T14:25:05.778Z,119.58
2023-02-03T14:26:05.728Z,118.35
2023-02-03T14:27:05.683Z,117.60
2023-02-03T14:28:05.853Z,117.31
2023-02-03T14:29:05.617Z,115.34
2023-02-03T14:30:05.564Z,115.64
2023-02-03T14:31:06.066Z,115.97
2023-02-03T14:32:05.536Z,114.82
2023-02-03T14:33:05.440Z,113.36
2023-02-03T14:34:06.244Z,113.84
2023-02-03T14:35:05.350Z,111.31
2023-02-03T14:37:05.291Z,108.32
2023-02-03T14:38:05.234Z,111.28
2023-02-03T14:39:05.193Z,111.37
2023-02-03T14:41:05.106Z,111.20
2023-02-03T14:42:05.072Z,109.71
2023-02-03T14:43:10.606Z,109.70
2023-02-03T14:44:05.955Z,109.88
2023-02-03T14:45:04.905Z,109.86
2023-02-03T14:46:04.862Z,109.92
2023-02-03T14:47:04.711Z,108.50
2023-02-03T14:48:04.627Z,107.86
2023-02-03T14:49:04.567Z,105.48
2023-02-03T14:50:04.495Z,106.42
2023-02-03T14:51:04.403Z,105.79
2023-02-03T14:52:04.473Z,104.23
2023-02-03T14:53:04.250Z,100.84
2023-02-03T14:54:04.184Z,103.98
2023-02-03T14:55:04.178Z,103.07
2023-02-03T14:56:04.073Z,103.93
2023-02-03T14:57:03.983Z,102.95
2023-02-03T14:58:03.962Z,102.92
2023-02-03T14:59:03.919Z,103.97
2023-02-03T15:00:03.885Z,101.21
2023-02-03T15:01:03.851Z,100.91
2023-02-03T15:02:03.926Z,99.50
2023-02-03T15:03:04.354Z,98.66
2023-02-03T15:04:03.748Z,98.82
2023-02-03T15:05:03.802Z,100.05
2023-02-03T15:06:03.686Z,100.16
2023-02-03T15:07:03.671Z,99.00
2023-02-03T15:08:03.630Z,97.77
2023-02-03T15:09:03.611Z,96.43
2023-02-03T15:10:03.571Z,97.57
2023-02-03T15:11:03.543Z,96.62
2023-02-03T15:12:03.528Z,95.13
2023-02-03T15:13:03.479Z,94.41
2023-02-03T15:14:03.464Z,97.53
2023-02-03T15:15:03.485Z,94.06
2023-02-03T15:16:03.498Z,95.65
2023-02-03T15:17:03.404Z,95.39
2023-02-03T15:41:03.381Z,90.86
2023-02-03T15:46:02.748Z,86.76
2023-02-03T15:47:02.905Z,87.04
2023-02-03T15:48:02.667Z,86.84
2023-02-03T15:49:02.652Z,85.29
2023-02-03T15:50:02.636Z,86.70
2023-02-03T15:51:02.613Z,86.56
2023-02-03T15:52:02.665Z,86.09
2023-02-03T15:53:02.579Z,85.07
2023-02-03T15:54:02.612Z,85.44
2023-02-03T15:55:02.532Z,85.38
2023-02-03T15:56:02.581Z,85.60
2023-02-03T15:57:02.507Z,84.38
2023-02-03T15:58:02.508Z,87.11
2023-02-03T15:59:02.489Z,83.91
2023-02-03T16:00:02.456Z,83.64
2023-02-03T16:01:02.456Z,81.45
2023-02-03T16:02:02.471Z,84.14
2023-02-03T16:03:02.467Z,83.56
2023-02-03T16:04:02.415Z,82.39
2023-02-03T16:05:02.400Z,81.82
2023-02-03T16:06:02.890Z,82.45
2023-02-03T16:07:02.400Z,80.91
2023-02-03T16:08:02.378Z,81.81
2023-02-03T16:09:02.350Z,81.57
2023-02-03T16:10:02.399Z,80.15
2023-02-03T16:11:02.380Z,79.96
2023-02-03T16:12:02.319Z,80.05
2023-02-03T16:13:02.306Z,80.43
2023-02-03T16:14:02.335Z,78.88
2023-02-03T16:15:02.271Z,76.80
2023-02-03T16:16:02.296Z,79.98
2023-02-03T16:17:05.907Z,77.66
2023-02-03T16:18:02.176Z,77.74
2023-02-03T16:19:02.086Z,78.02
2023-02-03T16:20:02.005Z,78.41
2023-02-03T16:21:01.922Z,77.23
2023-02-03T16:22:01.843Z,76.51
2023-02-03T16:23:01.788Z,77.41
2023-02-03T16:24:01.692Z,76.78
2023-02-03T16:25:01.605Z,77.08
2023-02-03T16:26:01.559Z,76.69
2023-02-03T16:27:01.463Z,76.78
2023-02-03T16:28:01.469Z,78.10
2023-02-03T16:29:01.302Z,75.08
2023-02-03T16:30:01.236Z,75.98
2023-02-03T16:31:01.278Z,74.57
2023-02-03T16:32:01.158Z,74.76
2023-02-03T16:33:00.983Z,74.53
2023-02-03T16:34:00.902Z,73.97
2023-02-03T16:35:00.828Z,72.84
2023-02-03T16:36:00.762Z,74.08
2023-02-03T16:37:00.661Z,74.68
2023-02-03T16:38:00.599Z,73.85
2023-02-03T16:39:00.575Z,72.81
2023-02-03T16:40:00.596Z,75.19
2023-02-03T16:41:00.568Z,73.97
2023-02-03T16:42:00.550Z,72.55
2023-02-03T16:43:00.584Z,73.23
2023-02-03T16:44:00.542Z,73.18
2023-02-03T16:45:00.537Z,72.49
2023-02-03T16:46:00.585Z,70.58
2023-02-03T16:47:00.533Z,70.38
2023-02-03T16:48:00.532Z,68.83
2023-02-03T16:49:00.517Z,70.92
2023-02-03T16:50:00.508Z,71.37
2023-02-03T16:51:00.485Z,70.46
2023-02-03T16:52:00.480Z,71.27
2023-02-03T16:53:00.562Z,69.66
2023-02-03T16:54:00.448Z,69.40
2023-02-03T16:55:00.433Z,67.48
2023-02-03T16:56:00.374Z,67.76
2023-02-03T16:57:00.908Z,70.18
2023-02-03T16:58:00.348Z,66.80
2023-02-03T16:59:00.277Z,67.44
2023-02-03T17:00:00.277Z,66.90
2023-02-03T17:01:00.375Z,64.79
2023-02-03T17:02:00.271Z,66.74
2023-02-03T17:03:00.288Z,65.06
2023-02-03T17:04:00.184Z,65.43
2023-02-03T17:05:00.212Z,65.38
2023-02-03T17:06:00.107Z,63.56
2023-02-03T17:07:00.061Z,64.71
2023-02-03T17:08:00.046Z,62.83
2023-02-03T17:09:00.026Z,63.47
2023-02-03T17:09:59.986Z,63.50
2023-02-03T17:10:59.960Z,65.99
2023-02-03T17:11:59.916Z,64.65
2023-02-03T17:12:59.864Z,63.12
2023-02-03T17:13:59.862Z,61.91
2023-02-03T17:14:59.744Z,62.26
2023-02-03T17:15:59.696Z,64.81
2023-02-03T17:16:59.779Z,62.03
2023-02-03T17:17:59.629Z,62.01
2023-02-03T17:18:59.575Z,58.91
2023-02-03T17:19:59.540Z,62.19
2023-02-03T17:20:59.490Z,60.00
2023-02-03T17:21:59.468Z,61.38
2023-02-03T17:22:59.442Z,63.09
2023-02-03T17:23:59.394Z,60.19
2023-02-03T17:24:59.342Z,59.52
2023-02-03T17:25:59.280Z,60.56
2023-02-03T17:26:59.264Z,61.87
2023-02-03T17:27:59.155Z,61.11
2023-02-03T17:28:59.088Z,60.45
2023-02-03T17:29:59.041Z,59.53
2023-02-03T17:30:59.061Z,61.68
2023-02-03T17:31:58.969Z,61.38
2023-02-03T17:32:59.448Z,61.13
2023-02-03T17:33:58.816Z,60.09
2023-02-03T17:34:58.740Z,55.83
2023-02-03T17:35:58.734Z,58.29
2023-02-03T17:36:58.609Z,54.46
2023-02-03T17:37:58.535Z,59.33
2023-02-03T17:53:26.216Z,25.00
2023-02-03T19:11:28.116Z,30.56
2023-02-03T19:12:28.154Z,29.37
2023-02-03T19:13:28.187Z,30.38
2023-02-03T19:14:28.218Z,27.78
2023-02-03T19:15:28.298Z,25.77
2023-02-03T19:16:28.273Z,31.35
2023-02-03T19:17:28.312Z,27.53
2023-02-03T19:18:28.330Z,28.68
2023-02-03T19:19:28.370Z,31.86
2023-02-03T19:20:28.720Z,28.09
2023-02-03T19:21:28.447Z,25.40
2023-02-03T19:22:28.444Z,30.62
2023-02-03T19:23:28.456Z,32.38
2023-02-03T19:24:28.520Z,32.19
2023-02-03T19:25:28.530Z,27.11
2023-02-03T19:26:28.574Z,28.51
2023-02-03T19:27:28.594Z,30.44
2023-02-03T19:28:31.209Z,29.11
2023-02-03T19:29:28.620Z,32.56
2023-02-03T19:30:29.067Z,26.87
2023-02-03T19:31:28.755Z,27.83
2023-02-03T19:32:28.685Z,31.38
2023-02-03T19:33:28.647Z,30.24
2023-02-03T19:34:28.653Z,29.85
2023-02-03T19:35:28.665Z,31.26
2023-02-03T19:36:28.673Z,29.21
2023-02-03T19:37:28.687Z,29.70
2023-02-03T19:38:28.689Z,29.16
2023-02-03T19:39:28.703Z,27.23
2023-02-03T19:40:29.074Z,27.40
2023-02-03T19:41:28.723Z,32.19
2023-02-03T19:42:28.729Z,30.74
2023-02-03T19:43:28.739Z,29.74
2023-02-03T19:44:28.758Z,28.81
2023-02-03T19:45:28.776Z,29.68
2023-02-03T19:46:28.888Z,30.45
2023-02-03T19:47:28.807Z,26.22
2023-02-03T19:48:28.825Z,27.96
2023-02-03T19:49:28.849Z,29.52
2023-02-03T19:50:29.291Z,29.39
2023-02-03T19:51:28.891Z,29.54
2023-02-03T19:52:28.956Z,30.18
2023-02-03T19:53:28.942Z,29.41
2023-02-03T19:54:28.938Z,28.81
2023-02-03T19:55:28.986Z,34.21
2023-02-03T19:56:28.964Z,32.17
2023-02-03T19:57:28.977Z,27.82
2023-02-03T19:58:28.987Z,29.70
2023-02-03T19:59:29.005Z,29.31
2023-02-03T20:00:29.390Z,30.86
2023-02-03T20:01:29.073Z,28.76
2023-02-03T20:02:29.071Z,30.07
2023-02-03T20:03:29.070Z,28.92
2023-02-03T20:04:29.095Z,26.70
2023-02-03T20:05:29.095Z,28.33
2023-02-03T20:06:29.094Z,29.33
2023-02-03T20:07:29.114Z,27.78
2023-02-03T20:08:29.201Z,30.17
2023-02-03T20:09:29.130Z,32.26
2023-02-03T20:10:29.560Z,27.05
2023-02-03T20:11:29.155Z,29.15
2023-02-03T20:12:29.163Z,29.32
2023-02-03T20:13:29.187Z,29.93
2023-02-03T20:14:29.203Z,30.19
2023-02-03T20:15:29.216Z,29.30
2023-02-03T20:16:29.312Z,27.90
2023-02-03T20:17:29.248Z,27.37
2023-02-03T20:18:29.245Z,29.94
2023-02-03T20:19:29.255Z,28.41
2023-02-03T20:20:29.540Z,27.15
2023-02-03T20:21:29.283Z,32.07
2023-02-03T20:22:29.296Z,25.78
2023-02-03T20:23:29.314Z,29.47
2023-02-03T20:24:29.309Z,29.87
2023-02-03T20:25:29.318Z,28.92
2023-02-03T20:26:29.332Z,26.97
2023-02-03T20:27:29.363Z,30.20
2023-02-03T20:28:29.380Z,26.91
2023-02-03T20:29:29.379Z,28.95
2023-02-03T20:30:29.951Z,30.52
2023-02-03T20:31:30.339Z,30.52
2023-02-03T20:32:29.417Z,26.08
2023-02-03T20:33:29.427Z,31.14
2023-02-03T20:34:29.438Z,29.16
2023-02-03T20:35:29.781Z,28.62
2023-02-03T20:36:29.466Z,29.42
2023-02-03T20:37:29.482Z,27.96
2023-02-03T20:38:29.504Z,26.85
2023-02-03T20:39:29.502Z,31.60
2023-02-03T20:40:29.825Z,28.65
2023-02-03T20:41:29.541Z,28.42
2023-02-03T20:42:29.567Z,30.06
2023-02-03T20:43:29.578Z,28.96
2023-02-03T20:44:29.590Z,30.19
2023-02-03T23:47:38.144Z,27.24
2023-02-03T23:48:38.199Z,27.40
2023-02-03T23:49:38.258Z,32.43
2023-02-03T23:50:38.309Z,29.16
2023-02-03T23:51:38.352Z,28.74
2023-02-03T23:52:38.387Z,30.78
2023-02-03T23:53:38.436Z,28.88
2023-02-03T23:54:38.498Z,28.02
2023-02-03T23:55:38.550Z,26.33
2023-02-03T23:56:38.603Z,29.95
2023-02-03T23:57:38.656Z,26.94
2023-02-03T23:58:38.713Z,27.19
2023-02-03T23:59:38.748Z,30.20
